sensor_id;sensor_type;location;lat;lon;timestamp;pressure;altitude;pressure_sealevel;temperature;humidity
79625;BME280;69101;45.534;10.218;2023-05-21T00:00:24;99689.84;;;20.19;53.55
79625;BME280;69101;45.534;10.218;2023-05-21T00:02:50;99690.88;;;20.18;53.21
79625;BME280;69101;45.534;10.218;2023-05-21T00:05:15;99690.03;;;20.18;53.70
79625;BME280;69101;45.534;10.218;2023-05-21T00:07:42;99688.22;;;20.18;53.28
79625;BME280;69101;45.534;10.218;2023-05-21T00:10:08;99682.94;;;20.18;54.01
79625;BME280;69101;45.534;10.218;2023-05-21T00:12:34;99679.66;;;20.16;53.84
79625;BME280;69101;45.534;10.218;2023-05-21T00:14:59;99683.72;;;20.19;53.80
79625;BME280;69101;45.534;10.218;2023-05-21T00:17:26;99678.66;;;20.17;53.18
79625;BME280;69101;45.534;10.218;2023-05-21T00:19:52;99678.44;;;20.19;53.89
79625;BME280;69101;45.534;10.218;2023-05-21T00:22:18;99683.94;;;20.17;53.39
79625;BME280;69101;45.534;10.218;2023-05-21T00:24:44;99668.09;;;20.17;53.01
79625;BME280;69101;45.534;10.218;2023-05-21T00:27:11;99671.56;;;20.18;53.41
79625;BME280;69101;45.534;10.218;2023-05-21T00:29:36;99672.56;;;20.17;53.79
79625;BME280;69101;45.534;10.218;2023-05-21T00:32:02;99670.13;;;20.15;53.66
79625;BME280;69101;45.534;10.218;2023-05-21T00:34:27;99662.81;;;20.17;53.83
79625;BME280;69101;45.534;10.218;2023-05-21T00:36:53;99660.38;;;20.16;53.66
79625;BME280;69101;45.534;10.218;2023-05-21T00:39:19;99664.63;;;20.17;53.85
79625;BME280;69101;45.534;10.218;2023-05-21T00:41:45;99656.09;;;20.15;53.90
79625;BME280;69101;45.534;10.218;2023-05-21T00:44:13;99657.75;;;20.16;53.95
79625;BME280;69101;45.534;10.218;2023-05-21T00:46:39;99657.53;;;20.17;54.08
79625;BME280;69101;45.534;10.218;2023-05-21T00:49:05;99647.97;;;20.16;53.80
79625;BME280;69101;45.534;10.218;2023-05-21T00:51:31;99654.28;;;20.15;54.14
79625;BME280;69101;45.534;10.218;2023-05-21T00:53:57;99645.34;;;20.16;53.42
79625;BME280;69101;45.534;10.218;2023-05-21T00:56:23;99656.94;;;20.15;53.38
79625;BME280;69101;45.534;10.218;2023-05-21T00:58:50;99651.66;;;20.15;54.34
79625;BME280;69101;45.534;10.218;2023-05-21T01:01:16;99640.47;;;20.13;54.24
79625;BME280;69101;45.534;10.218;2023-05-21T01:03:42;99642.09;;;20.14;53.64
79625;BME280;69101;45.534;10.218;2023-05-21T01:06:09;99654.28;;;20.15;54.33
79625;BME280;69101;45.534;10.218;2023-05-21T01:08:35;99642.09;;;20.14;53.99
79625;BME280;69101;45.534;10.218;2023-05-21T01:11:04;99642.09;;;20.14;53.93
79625;BME280;69101;45.534;10.218;2023-05-21T01:13:31;99639.44;;;20.14;54.07
79625;BME280;69101;45.534;10.218;2023-05-21T01:15:58;99634.16;;;20.14;54.32
79625;BME280;69101;45.534;10.218;2023-05-21T01:18:24;99628.88;;;20.14;54.16
79625;BME280;69101;45.534;10.218;2023-05-21T01:20:50;99627.28;;;20.13;53.68
79625;BME280;69101;45.534;10.218;2023-05-21T01:23:17;99643.91;;;20.14;53.87
79625;BME280;69101;45.534;10.218;2023-05-21T01:25:43;99632.56;;;20.13;54.10
79625;BME280;69101;45.534;10.218;2023-05-21T01:28:09;99637.84;;;20.13;53.75
79625;BME280;69101;45.534;10.218;2023-05-21T01:30:35;99636.19;;;20.12;53.97
79625;BME280;69101;45.534;10.218;2023-05-21T01:33:03;99636.19;;;20.12;54.57
79625;BME280;69101;45.534;10.218;2023-05-21T01:38:41;99627.28;;;20.13;54.03
79625;BME280;69101;45.534;10.218;2023-05-21T01:41:11;99619.53;;;20.12;54.37
79625;BME280;69101;45.534;10.218;2023-05-21T01:43:38;99623.00;;;20.12;53.89
79625;BME280;69101;45.534;10.218;2023-05-21T01:46:07;99625.63;;;20.12;54.36
79625;BME280;69101;45.534;10.218;2023-05-21T01:48:34;99623.19;;;20.11;54.58
79625;BME280;69101;45.534;10.218;2023-05-21T01:51:02;99627.66;;;20.10;53.63
79625;BME280;69101;45.534;10.218;2023-05-21T01:53:28;99633.75;;;20.11;53.78
79625;BME280;69101;45.534;10.218;2023-05-21T01:55:54;99629.28;;;20.11;53.71
79625;BME280;69101;45.534;10.218;2023-05-21T01:58:19;99641.69;;;20.11;53.82
79625;BME280;69101;45.534;10.218;2023-05-21T02:00:45;99650.41;;;20.11;54.33
79625;BME280;69101;45.534;10.218;2023-05-21T02:03:12;99651.22;;;20.12;54.01
79625;BME280;69101;45.534;10.218;2023-05-21T02:05:38;99647.16;;;20.09;53.79
79625;BME280;69101;45.534;10.218;2023-05-21T02:08:04;99650.41;;;20.11;53.92
79625;BME280;69101;45.534;10.218;2023-05-21T02:10:29;99648.78;;;20.10;54.10
79625;BME280;69101;45.534;10.218;2023-05-21T02:12:54;99671.50;;;20.11;54.22
79625;BME280;69101;45.534;10.218;2023-05-21T02:15:20;99660.16;;;20.11;53.48
79625;BME280;69101;45.534;10.218;2023-05-21T02:17:46;99649.59;;;20.11;53.85
79625;BME280;69101;45.534;10.218;2023-05-21T02:20:12;99660.97;;;20.11;53.88
79625;BME280;69101;45.534;10.218;2023-05-21T02:22:38;99656.06;;;20.08;53.56
79625;BME280;69101;45.534;10.218;2023-05-21T02:25:05;99656.72;;;20.10;53.90
79625;BME280;69101;45.534;10.218;2023-05-21T02:27:32;99652.44;;;20.09;54.34
79625;BME280;69101;45.534;10.218;2023-05-21T02:29:59;99653.25;;;20.10;54.26
79625;BME280;69101;45.534;10.218;2023-05-21T02:32:25;99666.44;;;20.10;54.20
79625;BME280;69101;45.534;10.218;2023-05-21T02:34:50;99652.44;;;20.09;53.79
79625;BME280;69101;45.534;10.218;2023-05-21T02:37:15;99651.44;;;20.10;54.55
79625;BME280;69101;45.534;10.218;2023-05-21T02:39:41;99653.41;;;20.08;54.48
79625;BME280;69101;45.534;10.218;2023-05-21T02:42:07;99639.22;;;20.09;54.69
79625;BME280;69101;45.534;10.218;2023-05-21T02:44:32;99644.91;;;20.06;54.08
79625;BME280;69101;45.534;10.218;2023-05-21T02:46:57;99640.22;;;20.08;54.76
79625;BME280;69101;45.534;10.218;2023-05-21T02:49:23;99636.78;;;20.08;55.92
79625;BME280;69101;45.534;10.218;2023-05-21T02:51:48;99638.63;;;20.07;55.06
79625;BME280;69101;45.534;10.218;2023-05-21T02:54:14;99636.38;;;20.04;54.14
79625;BME280;69101;45.534;10.218;2023-05-21T02:56:39;99635.38;;;20.05;55.55
79625;BME280;69101;45.534;10.218;2023-05-21T02:59:04;99640.66;;;20.05;54.56
79625;BME280;69101;45.534;10.218;2023-05-21T03:01:30;99631.28;;;20.03;55.04
79625;BME280;69101;45.534;10.218;2023-05-21T03:03:55;99626.81;;;20.03;54.73
79625;BME280;69101;45.534;10.218;2023-05-21T03:06:21;99631.28;;;20.03;55.17
79625;BME280;69101;45.534;10.218;2023-05-21T03:08:46;99639.00;;;20.04;55.62
79625;BME280;69101;45.534;10.218;2023-05-21T03:11:11;99635.75;;;20.02;56.38
79625;BME280;69101;45.534;10.218;2023-05-21T03:13:37;99628.00;;;20.00;55.23
79625;BME280;69101;45.534;10.218;2023-05-21T03:16:02;99619.09;;;20.02;55.66
79625;BME280;69101;45.534;10.218;2023-05-21T03:18:28;99619.09;;;20.02;55.76
79625;BME280;69101;45.534;10.218;2023-05-21T03:20:53;99624.59;;;20.00;55.30
79625;BME280;69101;45.534;10.218;2023-05-21T03:23:18;99615.63;;;20.01;56.07
79625;BME280;69101;45.534;10.218;2023-05-21T03:25:44;99616.66;;;20.00;54.95
79625;BME280;69101;45.534;10.218;2023-05-21T03:28:10;99608.94;;;19.98;55.34
79625;BME280;69101;45.534;10.218;2023-05-21T03:30:35;99605.88;;;19.95;55.49
79625;BME280;69101;45.534;10.218;2023-05-21T03:33:02;99606.28;;;19.98;56.39
79625;BME280;69101;45.534;10.218;2023-05-21T03:35:29;99602.59;;;19.93;55.80
79625;BME280;69101;45.534;10.218;2023-05-21T03:37:54;99606.50;;;19.97;55.53
79625;BME280;69101;45.534;10.218;2023-05-21T03:40:20;99607.94;;;19.99;55.73
79625;BME280;69101;45.534;10.218;2023-05-21T03:42:46;99602.81;;;19.98;55.69
79625;BME280;69101;45.534;10.218;2023-05-21T03:45:12;99611.56;;;19.98;56.19
79625;BME280;69101;45.534;10.218;2023-05-21T03:47:37;99607.31;;;19.97;55.44
79625;BME280;69101;45.534;10.218;2023-05-21T03:50:02;99612.59;;;19.97;55.81
79625;BME280;69101;45.534;10.218;2023-05-21T03:52:29;99612.78;;;19.96;55.08
79625;BME280;69101;45.534;10.218;2023-05-21T03:54:55;99611.78;;;19.97;55.68
79625;BME280;69101;45.534;10.218;2023-05-21T03:57:20;99608.09;;;19.98;56.02
79625;BME280;69101;45.534;10.218;2023-05-21T03:59:45;99609.13;;;19.97;55.17
79625;BME280;69101;45.534;10.218;2023-05-21T04:02:11;99610.13;;;19.96;55.70
79625;BME280;69101;45.534;10.218;2023-05-21T04:04:36;99605.69;;;19.96;56.02
79625;BME280;69101;45.534;10.218;2023-05-21T04:07:02;99600.59;;;19.95;55.72
79625;BME280;69101;45.534;10.218;2023-05-21T04:09:29;99609.53;;;19.94;55.71
79625;BME280;69101;45.534;10.218;2023-05-21T04:11:54;99602.44;;;19.94;55.56
79625;BME280;69101;45.534;10.218;2023-05-21T04:14:20;99601.59;;;19.94;56.07
79625;BME280;69101;45.534;10.218;2023-05-21T04:16:46;99606.69;;;19.95;55.56
79625;BME280;69101;45.534;10.218;2023-05-21T04:19:13;99616.63;;;19.93;55.20
79625;BME280;69101;45.534;10.218;2023-05-21T04:21:38;99613.97;;;19.93;56.04
79625;BME280;69101;45.534;10.218;2023-05-21T04:24:04;99619.09;;;19.95;55.15
79625;BME280;69101;45.534;10.218;2023-05-21T04:26:29;99621.09;;;19.93;55.63
79625;BME280;69101;45.534;10.218;2023-05-21T04:28:58;99623.53;;;19.94;56.57
79625;BME280;69101;45.534;10.218;2023-05-21T04:31:23;99620.09;;;19.94;55.16
79625;BME280;69101;45.534;10.218;2023-05-21T04:33:48;99623.53;;;19.94;56.48
79625;BME280;69101;45.534;10.218;2023-05-21T04:36:15;99622.72;;;19.94;56.04
79625;BME280;69101;45.534;10.218;2023-05-21T04:38:41;99609.53;;;19.94;55.52
79625;BME280;69101;45.534;10.218;2023-05-21T04:41:06;99614.81;;;19.94;55.54
79625;BME280;69101;45.534;10.218;2023-05-21T04:43:35;99619.25;;;19.93;55.58
79625;BME280;69101;45.534;10.218;2023-05-21T04:46:01;99615.81;;;19.93;55.94
79625;BME280;69101;45.534;10.218;2023-05-21T04:48:26;99616.00;;;19.91;55.35
79625;BME280;69101;45.534;10.218;2023-05-21T04:50:53;99615.00;;;19.92;56.11
79625;BME280;69101;45.534;10.218;2023-05-21T04:53:21;99627.41;;;19.92;55.79
79625;BME280;69101;45.534;10.218;2023-05-21T04:55:46;99621.50;;;19.90;55.93
79625;BME280;69101;45.534;10.218;2023-05-21T04:58:12;99616.22;;;19.90;55.46
79625;BME280;69101;45.534;10.218;2023-05-21T05:00:38;99621.28;;;19.91;55.86
79625;BME280;69101;45.534;10.218;2023-05-21T05:03:04;99620.47;;;19.91;55.65
79625;BME280;69101;45.534;10.218;2023-05-21T05:05:29;99620.47;;;19.91;55.10
79625;BME280;69101;45.534;10.218;2023-05-21T05:07:55;99614.38;;;19.90;55.69
79625;BME280;69101;45.534;10.218;2023-05-21T05:10:22;99615.19;;;19.91;55.08
79625;BME280;69101;45.534;10.218;2023-05-21T05:12:47;99612.56;;;19.91;55.31
79625;BME280;69101;45.534;10.218;2023-05-21T05:15:13;99620.28;;;19.92;55.73
79625;BME280;69101;45.534;10.218;2023-05-21T05:17:38;99604.47;;;19.92;55.55
79625;BME280;69101;45.534;10.218;2023-05-21T05:20:06;99605.25;;;19.93;55.73
79625;BME280;69101;45.534;10.218;2023-05-21T05:22:31;99597.31;;;19.93;54.94
79625;BME280;69101;45.534;10.218;2023-05-21T05:24:56;99590.63;;;19.90;55.38
79625;BME280;69101;45.534;10.218;2023-05-21T05:27:22;99602.59;;;19.93;55.15
79625;BME280;69101;45.534;10.218;2023-05-21T05:29:47;99601.81;;;19.92;55.48
79625;BME280;69101;45.534;10.218;2023-05-21T05:32:12;99593.06;;;19.92;54.65
79625;BME280;69101;45.534;10.218;2023-05-21T05:34:38;99593.91;;;19.92;55.32
79625;BME280;69101;45.534;10.218;2023-05-21T05:37:03;99592.47;;;19.90;56.00
79625;BME280;69101;45.534;10.218;2023-05-21T05:39:29;99603.63;;;19.92;56.12
79625;BME280;69101;45.534;10.218;2023-05-21T05:41:54;99595.09;;;19.90;55.22
79625;BME280;69101;45.534;10.218;2023-05-21T05:44:20;99586.56;;;19.88;55.07
79625;BME280;69101;45.534;10.218;2023-05-21T05:46:45;99590.63;;;19.90;55.21
79625;BME280;69101;45.534;10.218;2023-05-21T05:49:11;99602.00;;;19.91;55.03
79625;BME280;69101;45.534;10.218;2023-05-21T05:51:37;99593.91;;;19.92;54.96
79625;BME280;69101;45.534;10.218;2023-05-21T05:54:03;99591.88;;;19.94;55.38
79625;BME280;69101;45.534;10.218;2023-05-21T05:56:28;99582.53;;;19.92;54.75
79625;BME280;69101;45.534;10.218;2023-05-21T05:58:53;99586.78;;;19.93;55.34
79625;BME280;69101;45.534;10.218;2023-05-21T06:01:19;99589.03;;;19.96;54.99
79625;BME280;69101;45.534;10.218;2023-05-21T06:03:46;99585.56;;;19.95;55.25
79625;BME280;69101;45.534;10.218;2023-05-21T06:06:12;99595.31;;;19.95;54.81
79625;BME280;69101;45.534;10.218;2023-05-21T06:08:37;99590.84;;;19.95;54.64
79625;BME280;69101;45.534;10.218;2023-05-21T06:11:04;99591.66;;;19.96;55.26
79625;BME280;69101;45.534;10.218;2023-05-21T06:13:29;99592.47;;;19.96;55.20
79625;BME280;69101;45.534;10.218;2023-05-21T06:15:56;99590.66;;;19.97;54.92
79625;BME280;69101;45.534;10.218;2023-05-21T06:18:21;99595.72;;;19.98;55.23
79625;BME280;69101;45.534;10.218;2023-05-21T06:20:46;99601.00;;;19.98;54.98
79625;BME280;69101;45.534;10.218;2023-05-21T06:23:12;99592.28;;;19.98;55.00
79625;BME280;69101;45.534;10.218;2023-05-21T06:25:38;99587.00;;;19.98;54.89
79625;BME280;69101;45.534;10.218;2023-05-21T06:28:05;99587.00;;;19.98;55.14
79625;BME280;69101;45.534;10.218;2023-05-21T06:30:30;99591.28;;;19.99;54.47
79625;BME280;69101;45.534;10.218;2023-05-21T06:32:55;99595.53;;;20.00;55.14
79625;BME280;69101;45.534;10.218;2023-05-21T06:35:22;99599.19;;;19.99;54.76
79625;BME280;69101;45.534;10.218;2023-05-21T06:37:47;99602.81;;;19.98;54.33
79625;BME280;69101;45.534;10.218;2023-05-21T06:40:13;99606.28;;;19.98;54.67
79625;BME280;69101;45.534;10.218;2023-05-21T06:42:38;99607.31;;;19.97;54.58
79625;BME280;69101;45.534;10.218;2023-05-21T06:45:04;99615.22;;;19.97;54.39
79625;BME280;69101;45.534;10.218;2023-05-21T06:47:30;99614.41;;;19.97;54.64
79625;BME280;69101;45.534;10.218;2023-05-21T06:49:55;99609.75;;;19.99;54.91
79625;BME280;69101;45.534;10.218;2023-05-21T06:52:20;99615.84;;;19.99;54.79
79625;BME280;69101;45.534;10.218;2023-05-21T06:54:46;99618.47;;;19.99;54.91
79625;BME280;69101;45.534;10.218;2023-05-21T06:57:13;99628.00;;;20.00;55.46
79625;BME280;69101;45.534;10.218;2023-05-21T06:59:39;99620.09;;;20.00;54.94
79625;BME280;69101;45.534;10.218;2023-05-21T07:02:05;99626.19;;;20.01;55.13
79625;BME280;69101;45.534;10.218;2023-05-21T07:04:30;99616.44;;;20.02;55.24
79625;BME280;69101;45.534;10.218;2023-05-21T07:06:56;99608.53;;;20.02;54.97
79625;BME280;69101;45.534;10.218;2023-05-21T07:09:21;99614.63;;;20.02;55.04
79625;BME280;69101;45.534;10.218;2023-05-21T07:11:47;99619.91;;;20.02;55.28
79625;BME280;69101;45.534;10.218;2023-05-21T07:14:12;99621.53;;;20.03;54.59
79625;BME280;69101;45.534;10.218;2023-05-21T07:16:37;99619.91;;;20.02;55.41
79625;BME280;69101;45.534;10.218;2023-05-21T07:19:03;99630.25;;;20.04;55.14
79625;BME280;69101;45.534;10.218;2023-05-21T07:21:29;99629.66;;;20.02;55.07
79625;BME280;69101;45.534;10.218;2023-05-21T07:23:54;99615.44;;;20.03;55.70
79625;BME280;69101;45.534;10.218;2023-05-21T07:26:20;99622.34;;;20.04;55.29
79625;BME280;69101;45.534;10.218;2023-05-21T07:28:46;99630.25;;;20.04;55.22
79625;BME280;69101;45.534;10.218;2023-05-21T07:31:11;99639.22;;;20.03;54.85
79625;BME280;69101;45.534;10.218;2023-05-21T07:33:37;99645.94;;;20.05;55.27
79625;BME280;69101;45.534;10.218;2023-05-21T07:36:03;99653.03;;;20.05;55.00
79625;BME280;69101;45.534;10.218;2023-05-21T07:38:28;99653.84;;;20.05;55.26
79625;BME280;69101;45.534;10.218;2023-05-21T07:40:54;99661.75;;;20.05;55.15
79625;BME280;69101;45.534;10.218;2023-05-21T07:43:20;99653.03;;;20.05;55.22
79625;BME280;69101;45.534;10.218;2023-05-21T07:45:46;99655.66;;;20.05;55.41
79625;BME280;69101;45.534;10.218;2023-05-21T07:48:11;99639.81;;;20.05;54.70
79625;BME280;69101;45.534;10.218;2023-05-21T07:50:37;99644.91;;;20.06;54.99
79625;BME280;69101;45.534;10.218;2023-05-21T07:53:03;99638.00;;;20.05;55.03
79625;BME280;69101;45.534;10.218;2023-05-21T07:55:28;99644.91;;;20.06;54.99
79625;BME280;69101;45.534;10.218;2023-05-21T07:57:53;99642.25;;;20.06;55.98
79625;BME280;69101;45.534;10.218;2023-05-21T08:00:22;99642.06;;;20.08;55.46
79625;BME280;69101;45.534;10.218;2023-05-21T08:02:47;99649.16;;;20.07;55.12
79625;BME280;69101;45.534;10.218;2023-05-21T08:05:13;99650.00;;;20.08;55.88
79625;BME280;69101;45.534;10.218;2023-05-21T08:07:40;99650.00;;;20.08;55.80
79625;BME280;69101;45.534;10.218;2023-05-21T08:10:06;99647.34;;;20.08;54.97
79625;BME280;69101;45.534;10.218;2023-05-21T08:12:31;99644.50;;;20.09;55.94
79625;BME280;69101;45.534;10.218;2023-05-21T08:14:57;99652.44;;;20.09;55.39
79625;BME280;69101;45.534;10.218;2023-05-21T08:17:23;99654.06;;;20.10;55.38
79625;BME280;69101;45.534;10.218;2023-05-21T08:19:48;99658.31;;;20.11;55.11
79625;BME280;69101;45.534;10.218;2023-05-21T08:22:14;99653.03;;;20.11;55.84
79625;BME280;69101;45.534;10.218;2023-05-21T08:24:39;99653.69;;;20.13;55.86
79625;BME280;69101;45.534;10.218;2023-05-21T08:27:05;99649.59;;;20.11;55.79
79625;BME280;69101;45.534;10.218;2023-05-21T08:29:31;99650.00;;;20.14;56.11
79625;BME280;69101;45.534;10.218;2023-05-21T08:31:57;99653.25;;;20.16;56.12
79625;BME280;69101;45.534;10.218;2023-05-21T08:34:22;99657.53;;;20.17;55.91
79625;BME280;69101;45.534;10.218;2023-05-21T08:36:51;99652.25;;;20.17;56.25
79625;BME280;69101;45.534;10.218;2023-05-21T08:39:18;99643.94;;;20.20;56.53
79625;BME280;69101;45.534;10.218;2023-05-21T08:41:43;99643.94;;;20.20;56.41
79625;BME280;69101;45.534;10.218;2023-05-21T08:44:13;99640.25;;;20.21;56.42
79625;BME280;69101;45.534;10.218;2023-05-21T08:46:43;99632.34;;;20.21;56.18
79625;BME280;69101;45.534;10.218;2023-05-21T08:49:11;99637.03;;;20.19;56.01
79625;BME280;69101;45.534;10.218;2023-05-21T08:51:37;99642.91;;;20.21;56.54
79625;BME280;69101;45.534;10.218;2023-05-21T08:54:04;99641.09;;;20.22;56.11
79625;BME280;69101;45.534;10.218;2023-05-21T08:56:33;99643.59;;;20.23;54.97
79625;BME280;69101;45.534;10.218;2023-05-21T08:59:00;99641.72;;;20.24;55.11
79625;BME280;69101;45.534;10.218;2023-05-21T09:01:26;99640.09;;;20.23;54.73
79625;BME280;69101;45.534;10.218;2023-05-21T09:03:55;99638.31;;;20.23;54.46
79625;BME280;69101;45.534;10.218;2023-05-21T09:06:22;99645.19;;;20.24;54.26
79625;BME280;69101;45.534;10.218;2023-05-21T09:08:55;99641.56;;;20.25;54.29
79625;BME280;69101;45.534;10.218;2023-05-21T09:11:23;99641.56;;;20.25;53.88
79625;BME280;69101;45.534;10.218;2023-05-21T09:13:50;99644.19;;;20.25;53.60
79625;BME280;69101;45.534;10.218;2023-05-21T09:16:17;99637.09;;;20.26;53.84
79625;BME280;69101;45.534;10.218;2023-05-21T09:18:42;99649.25;;;20.27;53.56
79625;BME280;69101;45.534;10.218;2023-05-21T09:21:34;99644.78;;;20.27;53.39
79625;BME280;69101;45.534;10.218;2023-05-21T09:23:59;99643.97;;;20.27;53.28
79625;BME280;69101;45.534;10.218;2023-05-21T09:26:26;99648.25;;;20.28;53.22
79625;BME280;69101;45.534;10.218;2023-05-21T09:28:56;99649.06;;;20.28;53.31
79625;BME280;69101;45.534;10.218;2023-05-21T09:31:24;99636.66;;;20.29;53.27
79625;BME280;69101;45.534;10.218;2023-05-21T09:33:50;99641.94;;;20.29;53.46
79625;BME280;69101;45.534;10.218;2023-05-21T09:36:20;99639.13;;;20.30;53.15
79625;BME280;69101;45.534;10.218;2023-05-21T09:38:49;99633.84;;;20.30;52.93
79625;BME280;69101;45.534;10.218;2023-05-21T09:41:16;99635.44;;;20.31;52.99
79625;BME280;69101;45.534;10.218;2023-05-21T09:43:42;99634.44;;;20.32;52.88
79625;BME280;69101;45.534;10.218;2023-05-21T09:46:10;99644.00;;;20.33;52.79
79625;BME280;69101;45.534;10.218;2023-05-21T09:48:40;99642.97;;;20.34;52.83
79625;BME280;69101;45.534;10.218;2023-05-21T09:53:56;99635.06;;;20.34;52.68
79625;BME280;69101;45.534;10.218;2023-05-21T09:56:26;99624.69;;;20.33;52.76
79625;BME280;69101;45.534;10.218;2023-05-21T09:58:57;99628.56;;;20.37;52.52
79625;BME280;69101;45.534;10.218;2023-05-21T10:01:25;99627.75;;;20.36;52.73
79625;BME280;69101;45.534;10.218;2023-05-21T10:03:56;99628.16;;;20.40;52.66
79625;BME280;69101;45.534;10.218;2023-05-21T10:06:29;99632.44;;;20.41;52.59
79625;BME280;69101;45.534;10.218;2023-05-21T10:08:56;99637.13;;;20.39;52.57
79625;BME280;69101;45.534;10.218;2023-05-21T10:11:29;99641.19;;;20.41;52.62
79625;BME280;69101;45.534;10.218;2023-05-21T10:14:22;99632.84;;;20.44;52.53
79625;BME280;69101;45.534;10.218;2023-05-21T10:16:51;99634.69;;;20.44;52.61
79625;BME280;69101;45.534;10.218;2023-05-21T10:19:18;99632.84;;;20.44;52.34
79625;BME280;69101;45.534;10.218;2023-05-21T10:21:44;99636.31;;;20.45;52.47
79625;BME280;69101;45.534;10.218;2023-05-21T10:24:10;99644.03;;;20.46;52.60
79625;BME280;69101;45.534;10.218;2023-05-21T10:26:37;99641.19;;;20.48;52.37
79625;BME280;69101;45.534;10.218;2023-05-21T10:29:03;99633.47;;;20.46;52.42
79625;BME280;69101;45.534;10.218;2023-05-21T10:31:29;99636.72;;;20.48;52.46
79625;BME280;69101;45.534;10.218;2023-05-21T10:33:56;99627.16;;;20.47;52.29
79625;BME280;69101;45.534;10.218;2023-05-21T10:36:23;99633.03;;;20.49;52.26
79625;BME280;69101;45.534;10.218;2023-05-21T10:38:48;99636.31;;;20.51;52.38
79625;BME280;69101;45.534;10.218;2023-05-21T10:41:14;99636.31;;;20.51;52.45
79625;BME280;69101;45.534;10.218;2023-05-21T10:44:05;99631.66;;;20.53;52.49
79625;BME280;69101;45.534;10.218;2023-05-21T10:46:45;99623.91;;;20.52;52.51
79625;BME280;69101;45.534;10.218;2023-05-21T10:49:34;99631.66;;;20.53;52.36
79625;BME280;69101;45.534;10.218;2023-05-21T11:00:10;99617.63;;;20.53;52.43
79625;BME280;69101;45.534;10.218;2023-05-21T11:02:37;99622.50;;;20.56;52.32
79625;BME280;69101;45.534;10.218;2023-05-21T11:05:02;99618.22;;;20.55;52.43
79625;BME280;69101;45.534;10.218;2023-05-21T11:07:57;99614.38;;;20.57;52.46
79625;BME280;69101;45.534;10.218;2023-05-21T11:13:09;99596.69;;;20.58;52.43
79625;BME280;69101;45.534;10.218;2023-05-21T11:21:03;99592.00;;;20.60;52.39
79625;BME280;69101;45.534;10.218;2023-05-21T11:26:16;99595.47;;;20.60;52.34
79625;BME280;69101;45.534;10.218;2023-05-21T11:28:42;99598.94;;;20.61;52.15
79625;BME280;69101;45.534;10.218;2023-05-21T11:31:26;99596.28;;;20.61;52.37
79625;BME280;69101;45.534;10.218;2023-05-21T11:36:39;99592.44;;;20.64;52.30
79625;BME280;69101;45.534;10.218;2023-05-21T11:39:16;99587.97;;;20.64;52.28
79625;BME280;69101;45.534;10.218;2023-05-21T11:41:58;99591.44;;;20.65;52.22
79625;BME280;69101;45.534;10.218;2023-05-21T11:44:43;99591.44;;;20.65;52.25
79625;BME280;69101;45.534;10.218;2023-05-21T11:47:10;99592.22;;;20.65;52.25
79625;BME280;69101;45.534;10.218;2023-05-21T11:49:37;99591.22;;;20.66;52.17
79625;BME280;69101;45.534;10.218;2023-05-21T11:52:04;99585.09;;;20.66;52.35
79625;BME280;69101;45.534;10.218;2023-05-21T11:54:31;99585.72;;;20.68;52.29
79625;BME280;69101;45.534;10.218;2023-05-21T11:57:11;99588.56;;;20.66;52.31
79625;BME280;69101;45.534;10.218;2023-05-21T11:59:40;99596.28;;;20.68;52.36
79625;BME280;69101;45.534;10.218;2023-05-21T12:02:05;99589.16;;;20.68;52.33
79625;BME280;69101;45.534;10.218;2023-05-21T12:04:32;99590.00;;;20.69;52.36
79625;BME280;69101;45.534;10.218;2023-05-21T12:07:03;99585.53;;;20.69;52.31
79625;BME280;69101;45.534;10.218;2023-05-21T12:09:29;99582.06;;;20.69;52.31
79625;BME280;69101;45.534;10.218;2023-05-21T12:11:54;99584.50;;;20.70;52.17
79625;BME280;69101;45.534;10.218;2023-05-21T12:14:20;99579.00;;;20.72;52.35
79625;BME280;69101;45.534;10.218;2023-05-21T12:16:46;99589.59;;;20.72;52.13
79625;BME280;69101;45.534;10.218;2023-05-21T12:19:12;99576.38;;;20.72;52.23
79625;BME280;69101;45.534;10.218;2023-05-21T12:21:41;99579.84;;;20.72;52.33
79625;BME280;69101;45.534;10.218;2023-05-21T12:24:06;99585.31;;;20.71;52.25
79625;BME280;69101;45.534;10.218;2023-05-21T12:26:32;99585.91;;;20.73;52.25
79625;BME280;69101;45.534;10.218;2023-05-21T12:29:00;99570.06;;;20.73;52.33
79625;BME280;69101;45.534;10.218;2023-05-21T12:31:28;99579.63;;;20.74;52.38
79625;BME280;69101;45.534;10.218;2023-05-21T12:33:54;99580.44;;;20.74;52.32
79625;BME280;69101;45.534;10.218;2023-05-21T12:36:21;99580.44;;;20.74;52.33
79625;BME280;69101;45.534;10.218;2023-05-21T12:38:48;99579.63;;;20.74;52.15
79625;BME280;69101;45.534;10.218;2023-05-21T12:41:15;99579.41;;;20.75;52.15
79625;BME280;69101;45.534;10.218;2023-05-21T12:43:41;99578.41;;;20.76;52.25
79625;BME280;69101;45.534;10.218;2023-05-21T12:46:06;99574.94;;;20.76;52.35
79625;BME280;69101;45.534;10.218;2023-05-21T12:48:32;99570.47;;;20.76;52.32
79625;BME280;69101;45.534;10.218;2023-05-21T12:50:58;99566.81;;;20.77;52.20
79625;BME280;69101;45.534;10.218;2023-05-21T12:53:24;99563.38;;;20.77;52.27
79625;BME280;69101;45.534;10.218;2023-05-21T12:55:49;99567.44;;;20.79;52.07
79625;BME280;69101;45.534;10.218;2023-05-21T12:58:14;99566.59;;;20.79;52.22
79625;BME280;69101;45.534;10.218;2023-05-21T13:00:41;99559.28;;;20.81;52.31
79625;BME280;69101;45.534;10.218;2023-05-21T13:03:07;99553.16;;;20.80;52.34
79625;BME280;69101;45.534;10.218;2023-05-21T13:05:33;99550.53;;;20.80;52.31
79625;BME280;69101;45.534;10.218;2023-05-21T13:07:58;99546.88;;;20.81;52.20
79625;BME280;69101;45.534;10.218;2023-05-21T13:10:23;99558.28;;;20.82;52.31
79625;BME280;69101;45.534;10.218;2023-05-21T13:12:49;99547.88;;;20.80;52.38
79625;BME280;69101;45.534;10.218;2023-05-21T13:15:14;99550.13;;;20.83;52.13